sensor_id;sensor_type;location;lat;lon;timestamp;temperature;humidity
64817;DHT22;69411;45.656;11.740;2024-01-25T00:00:02;3.70;70.30
64817;DHT22;69411;45.656;11.740;2024-01-25T00:02:28;3.70;70.30
64817;DHT22;69411;45.656;11.740;2024-01-25T00:04:54;3.70;70.00
64817;DHT22;69411;45.656;11.740;2024-01-25T00:07:20;3.60;70.20
64817;DHT22;69411;45.656;11.740;2024-01-25T00:09:46;3.60;70.40
64817;DHT22;69411;45.656;11.740;2024-01-25T00:12:12;3.60;70.30
64817;DHT22;69411;45.656;11.740;2024-01-25T00:14:37;3.60;70.70
64817;DHT22;69411;45.656;11.740;2024-01-25T00:17:04;3.60;70.50
64817;DHT22;69411;45.656;11.740;2024-01-25T00:19:30;3.50;70.40
64817;DHT22;69411;45.656;11.740;2024-01-25T00:21:56;3.50;70.30
64817;DHT22;69411;45.656;11.740;2024-01-25T00:24:21;3.60;70.50
64817;DHT22;69411;45.656;11.740;2024-01-25T00:26:47;3.60;71.20
64817;DHT22;69411;45.656;11.740;2024-01-25T00:29:14;3.60;71.40
64817;DHT22;69411;45.656;11.740;2024-01-25T00:31:41;3.60;70.60
64817;DHT22;69411;45.656;11.740;2024-01-25T00:34:07;3.50;70.70
64817;DHT22;69411;45.656;11.740;2024-01-25T00:36:33;3.50;71.10
64817;DHT22;69411;45.656;11.740;2024-01-25T00:38:59;3.50;70.90
64817;DHT22;69411;45.656;11.740;2024-01-25T00:41:26;3.50;70.90
64817;DHT22;69411;45.656;11.740;2024-01-25T00:43:53;3.50;70.90
64817;DHT22;69411;45.656;11.740;2024-01-25T00:46:19;3.40;70.80
64817;DHT22;69411;45.656;11.740;2024-01-25T00:48:45;3.40;70.80
64817;DHT22;69411;45.656;11.740;2024-01-25T00:51:16;3.50;70.70
64817;DHT22;69411;45.656;11.740;2024-01-25T00:53:46;3.40;70.50
64817;DHT22;69411;45.656;11.740;2024-01-25T00:56:12;3.40;70.60
64817;DHT22;69411;45.656;11.740;2024-01-25T00:58:38;3.40;70.90
64817;DHT22;69411;45.656;11.740;2024-01-25T01:01:04;3.40;70.70
64817;DHT22;69411;45.656;11.740;2024-01-25T01:03:31;3.40;70.80
64817;DHT22;69411;45.656;11.740;2024-01-25T01:05:57;3.40;70.70
64817;DHT22;69411;45.656;11.740;2024-01-25T01:08:23;3.40;70.70
64817;DHT22;69411;45.656;11.740;2024-01-25T01:10:49;3.40;70.80
64817;DHT22;69411;45.656;11.740;2024-01-25T01:13:15;3.40;70.80
64817;DHT22;69411;45.656;11.740;2024-01-25T01:15:41;3.40;70.70
64817;DHT22;69411;45.656;11.740;2024-01-25T01:18:07;3.40;70.70
64817;DHT22;69411;45.656;11.740;2024-01-25T01:20:33;3.40;70.50
64817;DHT22;69411;45.656;11.740;2024-01-25T01:22:59;3.40;70.30
64817;DHT22;69411;45.656;11.740;2024-01-25T01:25:25;3.40;70.30
64817;DHT22;69411;45.656;11.740;2024-01-25T01:27:51;3.30;70.60
64817;DHT22;69411;45.656;11.740;2024-01-25T01:30:17;3.30;70.60
64817;DHT22;69411;45.656;11.740;2024-01-25T01:32:42;3.30;70.50
64817;DHT22;69411;45.656;11.740;2024-01-25T01:35:08;3.30;70.80
64817;DHT22;69411;45.656;11.740;2024-01-25T01:37:34;3.30;70.90
64817;DHT22;69411;45.656;11.740;2024-01-25T01:40:00;3.30;70.90
64817;DHT22;69411;45.656;11.740;2024-01-25T01:42:27;3.30;71.10
64817;DHT22;69411;45.656;11.740;2024-01-25T01:44:53;3.30;71.00
64817;DHT22;69411;45.656;11.740;2024-01-25T01:47:19;3.30;71.40
64817;DHT22;69411;45.656;11.740;2024-01-25T01:49:45;3.30;71.50
64817;DHT22;69411;45.656;11.740;2024-01-25T01:52:12;3.30;71.40
64817;DHT22;69411;45.656;11.740;2024-01-25T01:54:38;3.30;71.80
64817;DHT22;69411;45.656;11.740;2024-01-25T01:57:06;3.30;71.90
64817;DHT22;69411;45.656;11.740;2024-01-25T01:59:32;3.30;71.70
64817;DHT22;69411;45.656;11.740;2024-01-25T02:01:58;3.20;72.10
64817;DHT22;69411;45.656;11.740;2024-01-25T02:04:24;3.30;72.00
64817;DHT22;69411;45.656;11.740;2024-01-25T02:06:50;3.20;71.30
64817;DHT22;69411;45.656;11.740;2024-01-25T02:09:16;3.10;71.10
64817;DHT22;69411;45.656;11.740;2024-01-25T02:11:42;3.10;71.80
64817;DHT22;69411;45.656;11.740;2024-01-25T02:14:08;3.10;71.70
64817;DHT22;69411;45.656;11.740;2024-01-25T02:16:37;3.10;71.70
64817;DHT22;69411;45.656;11.740;2024-01-25T02:19:04;3.10;71.90
64817;DHT22;69411;45.656;11.740;2024-01-25T02:21:30;3.10;71.60
64817;DHT22;69411;45.656;11.740;2024-01-25T02:23:55;3.10;71.70
64817;DHT22;69411;45.656;11.740;2024-01-25T02:26:21;3.10;71.80
64817;DHT22;69411;45.656;11.740;2024-01-25T02:28:47;3.10;71.70
64817;DHT22;69411;45.656;11.740;2024-01-25T02:31:13;3.10;71.70
64817;DHT22;69411;45.656;11.740;2024-01-25T02:33:39;3.10;71.50
64817;DHT22;69411;45.656;11.740;2024-01-25T02:36:05;3.10;71.20
64817;DHT22;69411;45.656;11.740;2024-01-25T02:38:31;3.10;71.20
64817;DHT22;69411;45.656;11.740;2024-01-25T02:40:57;3.00;71.40
64817;DHT22;69411;45.656;11.740;2024-01-25T02:43:23;3.10;71.60
64817;DHT22;69411;45.656;11.740;2024-01-25T02:45:49;3.00;71.70
64817;DHT22;69411;45.656;11.740;2024-01-25T02:48:15;3.10;71.80
64817;DHT22;69411;45.656;11.740;2024-01-25T02:50:41;3.10;71.60
64817;DHT22;69411;45.656;11.740;2024-01-25T02:53:07;3.10;71.50
64817;DHT22;69411;45.656;11.740;2024-01-25T02:55:33;3.10;71.90
64817;DHT22;69411;45.656;11.740;2024-01-25T02:57:59;3.10;71.90
64817;DHT22;69411;45.656;11.740;2024-01-25T03:00:25;3.10;71.70
64817;DHT22;69411;45.656;11.740;2024-01-25T03:02:50;3.10;72.10
64817;DHT22;69411;45.656;11.740;2024-01-25T03:05:16;3.10;72.00
64817;DHT22;69411;45.656;11.740;2024-01-25T03:07:43;3.10;72.30
64817;DHT22;69411;45.656;11.740;2024-01-25T03:10:09;3.10;72.20
64817;DHT22;69411;45.656;11.740;2024-01-25T03:12:35;3.10;72.70
64817;DHT22;69411;45.656;11.740;2024-01-25T03:15:01;3.10;72.60
64817;DHT22;69411;45.656;11.740;2024-01-25T03:17:27;3.00;72.30
64817;DHT22;69411;45.656;11.740;2024-01-25T03:19:52;3.10;72.20
64817;DHT22;69411;45.656;11.740;2024-01-25T03:22:18;3.10;72.20
64817;DHT22;69411;45.656;11.740;2024-01-25T03:24:44;3.00;72.10
64817;DHT22;69411;45.656;11.740;2024-01-25T03:27:10;3.00;72.10
64817;DHT22;69411;45.656;11.740;2024-01-25T03:29:43;3.00;71.90
64817;DHT22;69411;45.656;11.740;2024-01-25T03:32:10;3.00;71.80
64817;DHT22;69411;45.656;11.740;2024-01-25T03:34:36;3.00;71.70
64817;DHT22;69411;45.656;11.740;2024-01-25T03:37:02;3.00;71.70
64817;DHT22;69411;45.656;11.740;2024-01-25T03:39:28;3.00;71.70
64817;DHT22;69411;45.656;11.740;2024-01-25T03:41:54;3.00;71.80
64817;DHT22;69411;45.656;11.740;2024-01-25T03:44:20;3.00;72.10
64817;DHT22;69411;45.656;11.740;2024-01-25T03:46:46;3.00;72.40
64817;DHT22;69411;45.656;11.740;2024-01-25T03:49:12;3.00;72.30
64817;DHT22;69411;45.656;11.740;2024-01-25T03:51:38;3.10;72.30
64817;DHT22;69411;45.656;11.740;2024-01-25T03:54:04;3.10;72.10
64817;DHT22;69411;45.656;11.740;2024-01-25T03:56:29;3.10;72.10
64817;DHT22;69411;45.656;11.740;2024-01-25T03:58:55;3.20;71.80
64817;DHT22;69411;45.656;11.740;2024-01-25T04:01:21;3.20;71.50
64817;DHT22;69411;45.656;11.740;2024-01-25T04:03:47;3.10;71.20
64817;DHT22;69411;45.656;11.740;2024-01-25T04:06:13;3.10;71.60
64817;DHT22;69411;45.656;11.740;2024-01-25T04:08:39;3.10;71.50
64817;DHT22;69411;45.656;11.740;2024-01-25T04:11:05;3.10;71.40
64817;DHT22;69411;45.656;11.740;2024-01-25T04:13:31;3.10;71.40
64817;DHT22;69411;45.656;11.740;2024-01-25T04:15:57;3.10;71.20
64817;DHT22;69411;45.656;11.740;2024-01-25T04:18:23;3.10;71.30
64817;DHT22;69411;45.656;11.740;2024-01-25T04:20:48;3.10;71.30
64817;DHT22;69411;45.656;11.740;2024-01-25T04:23:16;3.10;71.30
64817;DHT22;69411;45.656;11.740;2024-01-25T04:25:42;3.10;71.60
64817;DHT22;69411;45.656;11.740;2024-01-25T04:28:09;3.00;71.20
64817;DHT22;69411;45.656;11.740;2024-01-25T04:30:34;3.00;71.10
64817;DHT22;69411;45.656;11.740;2024-01-25T04:33:01;3.00;71.50
64817;DHT22;69411;45.656;11.740;2024-01-25T04:35:27;3.10;71.40
64817;DHT22;69411;45.656;11.740;2024-01-25T04:37:53;3.10;71.40
64817;DHT22;69411;45.656;11.740;2024-01-25T04:40:19;3.10;71.60
64817;DHT22;69411;45.656;11.740;2024-01-25T04:42:45;3.10;71.60
64817;DHT22;69411;45.656;11.740;2024-01-25T04:45:11;3.10;71.50
64817;DHT22;69411;45.656;11.740;2024-01-25T04:47:38;3.10;71.40
64817;DHT22;69411;45.656;11.740;2024-01-25T04:50:05;3.10;71.50
64817;DHT22;69411;45.656;11.740;2024-01-25T04:52:32;3.10;71.30
64817;DHT22;69411;45.656;11.740;2024-01-25T04:54:57;3.10;71.60
64817;DHT22;69411;45.656;11.740;2024-01-25T04:57:23;3.10;71.40
64817;DHT22;69411;45.656;11.740;2024-01-25T04:59:49;3.10;71.30
64817;DHT22;69411;45.656;11.740;2024-01-25T05:02:15;3.10;71.30
64817;DHT22;69411;45.656;11.740;2024-01-25T05:04:41;3.10;71.60
64817;DHT22;69411;45.656;11.740;2024-01-25T05:07:07;3.20;71.50
64817;DHT22;69411;45.656;11.740;2024-01-25T05:09:33;3.20;71.50
64817;DHT22;69411;45.656;11.740;2024-01-25T05:11:59;3.20;71.50
64817;DHT22;69411;45.656;11.740;2024-01-25T05:14:27;3.20;71.70
64817;DHT22;69411;45.656;11.740;2024-01-25T05:16:53;3.30;71.40
64817;DHT22;69411;45.656;11.740;2024-01-25T05:19:19;3.20;72.00
64817;DHT22;69411;45.656;11.740;2024-01-25T05:21:45;3.30;72.00
64817;DHT22;69411;45.656;11.740;2024-01-25T05:24:12;3.30;72.00
64817;DHT22;69411;45.656;11.740;2024-01-25T05:26:38;3.30;71.40
64817;DHT22;69411;45.656;11.740;2024-01-25T05:29:04;3.30;71.80
64817;DHT22;69411;45.656;11.740;2024-01-25T05:31:30;3.30;71.20
64817;DHT22;69411;45.656;11.740;2024-01-25T05:33:56;3.30;71.00
64817;DHT22;69411;45.656;11.740;2024-01-25T05:36:22;3.30;71.50
64817;DHT22;69411;45.656;11.740;2024-01-25T05:38:48;3.30;72.20
64817;DHT22;69411;45.656;11.740;2024-01-25T05:41:14;3.30;72.10
64817;DHT22;69411;45.656;11.740;2024-01-25T05:43:40;3.40;72.30
64817;DHT22;69411;45.656;11.740;2024-01-25T05:46:06;3.40;71.90
64817;DHT22;69411;45.656;11.740;2024-01-25T05:48:32;3.40;72.10
64817;DHT22;69411;45.656;11.740;2024-01-25T05:50:58;3.50;72.40
64817;DHT22;69411;45.656;11.740;2024-01-25T05:53:23;3.50;71.70
64817;DHT22;69411;45.656;11.740;2024-01-25T05:55:49;3.50;71.60
64817;DHT22;69411;45.656;11.740;2024-01-25T05:58:15;3.60;71.50
64817;DHT22;69411;45.656;11.740;2024-01-25T06:00:42;3.50;71.30
64817;DHT22;69411;45.656;11.740;2024-01-25T06:03:08;3.50;71.40
64817;DHT22;69411;45.656;11.740;2024-01-25T06:05:34;3.50;71.60
64817;DHT22;69411;45.656;11.740;2024-01-25T06:08:00;3.40;71.30
64817;DHT22;69411;45.656;11.740;2024-01-25T06:10:26;3.40;71.30
64817;DHT22;69411;45.656;11.740;2024-01-25T06:12:52;3.40;71.40
64817;DHT22;69411;45.656;11.740;2024-01-25T06:15:18;3.30;71.60
64817;DHT22;69411;45.656;11.740;2024-01-25T06:17:44;3.30;71.80
64817;DHT22;69411;45.656;11.740;2024-01-25T06:20:10;3.30;71.60
64817;DHT22;69411;45.656;11.740;2024-01-25T06:22:36;3.30;71.50
64817;DHT22;69411;45.656;11.740;2024-01-25T06:25:02;3.30;71.30
64817;DHT22;69411;45.656;11.740;2024-01-25T06:27:29;3.20;71.30
64817;DHT22;69411;45.656;11.740;2024-01-25T06:29:55;3.20;71.60
64817;DHT22;69411;45.656;11.740;2024-01-25T06:32:21;3.20;71.70
64817;DHT22;69411;45.656;11.740;2024-01-25T06:34:47;3.20;72.00
64817;DHT22;69411;45.656;11.740;2024-01-25T06:37:13;3.20;72.00
64817;DHT22;69411;45.656;11.740;2024-01-25T06:39:41;3.20;71.80
64817;DHT22;69411;45.656;11.740;2024-01-25T06:42:07;3.20;71.90
64817;DHT22;69411;45.656;11.740;2024-01-25T06:44:33;3.20;72.00
64817;DHT22;69411;45.656;11.740;2024-01-25T06:46:59;3.20;72.10
64817;DHT22;69411;45.656;11.740;2024-01-25T06:49:25;3.20;72.70
64817;DHT22;69411;45.656;11.740;2024-01-25T06:51:51;3.20;72.60
64817;DHT22;69411;45.656;11.740;2024-01-25T06:54:17;3.20;72.70
64817;DHT22;69411;45.656;11.740;2024-01-25T06:56:43;3.30;72.40
64817;DHT22;69411;45.656;11.740;2024-01-25T06:59:09;3.30;73.00
64817;DHT22;69411;45.656;11.740;2024-01-25T07:01:35;3.30;72.30
64817;DHT22;69411;45.656;11.740;2024-01-25T07:04:01;3.20;72.30
64817;DHT22;69411;45.656;11.740;2024-01-25T07:06:27;3.20;72.30
64817;DHT22;69411;45.656;11.740;2024-01-25T07:08:54;3.20;72.50
64817;DHT22;69411;45.656;11.740;2024-01-25T07:11:20;3.30;72.60
64817;DHT22;69411;45.656;11.740;2024-01-25T07:13:46;3.30;72.20
64817;DHT22;69411;45.656;11.740;2024-01-25T07:16:12;3.30;72.60
64817;DHT22;69411;45.656;11.740;2024-01-25T07:18:39;3.30;72.80
64817;DHT22;69411;45.656;11.740;2024-01-25T07:21:05;3.30;73.00
64817;DHT22;69411;45.656;11.740;2024-01-25T07:23:33;3.40;73.30
64817;DHT22;69411;45.656;11.740;2024-01-25T07:25:59;3.40;73.10
64817;DHT22;69411;45.656;11.740;2024-01-25T07:28:25;3.50;73.50
64817;DHT22;69411;45.656;11.740;2024-01-25T07:30:51;3.60;73.00
64817;DHT22;69411;45.656;11.740;2024-01-25T07:33:17;3.60;73.20
64817;DHT22;69411;45.656;11.740;2024-01-25T07:35:43;3.60;73.10
64817;DHT22;69411;45.656;11.740;2024-01-25T07:38:12;3.70;73.30
64817;DHT22;69411;45.656;11.740;2024-01-25T07:40:38;3.80;74.50
64817;DHT22;69411;45.656;11.740;2024-01-25T07:43:04;3.90;74.50
64817;DHT22;69411;45.656;11.740;2024-01-25T07:45:31;3.90;78.00
64817;DHT22;69411;45.656;11.740;2024-01-25T07:47:58;4.20;77.60
64817;DHT22;69411;45.656;11.740;2024-01-25T07:50:24;4.50;77.70
64817;DHT22;69411;45.656;11.740;2024-01-25T07:52:50;4.70;76.50
64817;DHT22;69411;45.656;11.740;2024-01-25T07:55:17;4.90;76.00
64817;DHT22;69411;45.656;11.740;2024-01-25T07:57:43;5.10;75.50
64817;DHT22;69411;45.656;11.740;2024-01-25T08:00:09;5.30;75.00
64817;DHT22;69411;45.656;11.740;2024-01-25T08:02:38;5.40;74.30
64817;DHT22;69411;45.656;11.740;2024-01-25T08:05:05;5.60;74.40
64817;DHT22;69411;45.656;11.740;2024-01-25T08:07:32;5.70;74.00
64817;DHT22;69411;45.656;11.740;2024-01-25T08:09:59;5.90;73.60
64817;DHT22;69411;45.656;11.740;2024-01-25T08:12:25;6.00;73.40
64817;DHT22;69411;45.656;11.740;2024-01-25T08:14:51;6.10;73.00
64817;DHT22;69411;45.656;11.740;2024-01-25T08:17:18;6.30;72.80
64817;DHT22;69411;45.656;11.740;2024-01-25T08:19:45;6.40;72.50
64817;DHT22;69411;45.656;11.740;2024-01-25T08:22:12;6.60;72.20
64817;DHT22;69411;45.656;11.740;2024-01-25T08:24:41;6.80;71.50
64817;DHT22;69411;45.656;11.740;2024-01-25T08:27:06;6.90;71.20
64817;DHT22;69411;45.656;11.740;2024-01-25T08:29:35;7.00;71.20
64817;DHT22;69411;45.656;11.740;2024-01-25T08:32:03;7.10;70.60
64817;DHT22;69411;45.656;11.740;2024-01-25T08:34:29;7.30;70.60
64817;DHT22;69411;45.656;11.740;2024-01-25T08:36:55;7.40;70.50
64817;DHT22;69411;45.656;11.740;2024-01-25T08:39:21;7.50;70.70
64817;DHT22;69411;45.656;11.740;2024-01-25T08:41:47;7.60;70.60
64817;DHT22;69411;45.656;11.740;2024-01-25T08:44:15;7.80;70.50
64817;DHT22;69411;45.656;11.740;2024-01-25T08:46:40;7.90;70.00
64817;DHT22;69411;45.656;11.740;2024-01-25T08:49:08;8.00;69.80
64817;DHT22;69411;45.656;11.740;2024-01-25T08:51:36;8.20;69.90
64817;DHT22;69411;45.656;11.740;2024-01-25T08:54:01;8.30;69.80
64817;DHT22;69411;45.656;11.740;2024-01-25T08:56:29;8.40;69.40
64817;DHT22;69411;45.656;11.740;2024-01-25T08:58:55;8.50;69.40
64817;DHT22;69411;45.656;11.740;2024-01-25T09:01:21;8.60;68.80
64817;DHT22;69411;45.656;11.740;2024-01-25T09:03:47;8.70;68.90
64817;DHT22;69411;45.656;11.740;2024-01-25T09:06:13;8.90;68.70
64817;DHT22;69411;45.656;11.740;2024-01-25T09:08:40;8.90;68.40
64817;DHT22;69411;45.656;11.740;2024-01-25T09:11:06;9.10;67.90
64817;DHT22;69411;45.656;11.740;2024-01-25T09:13:32;9.20;67.80
64817;DHT22;69411;45.656;11.740;2024-01-25T09:15:58;9.40;67.70
64817;DHT22;69411;45.656;11.740;2024-01-25T09:18:24;9.50;67.60
64817;DHT22;69411;45.656;11.740;2024-01-25T09:20:50;9.60;68.00
64817;DHT22;69411;45.656;11.740;2024-01-25T09:23:17;9.80;67.80
64817;DHT22;69411;45.656;11.740;2024-01-25T09:25:44;9.90;67.10
64817;DHT22;69411;45.656;11.740;2024-01-25T09:28:11;10.00;67.00
64817;DHT22;69411;45.656;11.740;2024-01-25T09:30:41;10.20;67.00
64817;DHT22;69411;45.656;11.740;2024-01-25T09:33:07;10.30;66.60
64817;DHT22;69411;45.656;11.740;2024-01-25T09:35:33;10.40;66.20
64817;DHT22;69411;45.656;11.740;2024-01-25T09:37:59;10.50;66.20
64817;DHT22;69411;45.656;11.740;2024-01-25T09:40:25;10.60;66.00
64817;DHT22;69411;45.656;11.740;2024-01-25T09:42:52;10.70;65.70
64817;DHT22;69411;45.656;11.740;2024-01-25T09:45:19;10.90;65.80
64817;DHT22;69411;45.656;11.740;2024-01-25T09:47:45;10.90;65.60
64817;DHT22;69411;45.656;11.740;2024-01-25T09:50:12;11.10;65.50
64817;DHT22;69411;45.656;11.740;2024-01-25T09:52:38;11.20;65.60
64817;DHT22;69411;45.656;11.740;2024-01-25T09:55:06;11.30;65.10
64817;DHT22;69411;45.656;11.740;2024-01-25T09:57:35;11.40;64.60
64817;DHT22;69411;45.656;11.740;2024-01-25T10:00:05;11.40;64.40
64817;DHT22;69411;45.656;11.740;2024-01-25T10:02:35;11.60;64.50
64817;DHT22;69411;45.656;11.740;2024-01-25T10:05:01;11.60;64.40
64817;DHT22;69411;45.656;11.740;2024-01-25T10:07:41;11.80;63.80
64817;DHT22;69411;45.656;11.740;2024-01-25T10:10:08;11.80;63.50
64817;DHT22;69411;45.656;11.740;2024-01-25T10:12:34;11.90;63.60
64817;DHT22;69411;45.656;11.740;2024-01-25T10:15:01;11.90;63.10
64817;DHT22;69411;45.656;11.740;2024-01-25T10:17:28;11.90;62.60
64817;DHT22;69411;45.656;11.740;2024-01-25T10:19:55;12.10;62.40
64817;DHT22;69411;45.656;11.740;2024-01-25T10:22:21;12.10;62.80
64817;DHT22;69411;45.656;11.740;2024-01-25T10:24:49;12.10;62.50
64817;DHT22;69411;45.656;11.740;2024-01-25T10:27:19;12.20;62.90
64817;DHT22;69411;45.656;11.740;2024-01-25T10:29:45;12.20;62.70
64817;DHT22;69411;45.656;11.740;2024-01-25T10:32:12;12.40;62.40
64817;DHT22;69411;45.656;11.740;2024-01-25T10:34:38;12.40;62.10
64817;DHT22;69411;45.656;11.740;2024-01-25T10:37:08;12.40;62.20
64817;DHT22;69411;45.656;11.740;2024-01-25T10:39:34;12.50;61.90
64817;DHT22;69411;45.656;11.740;2024-01-25T10:42:00;12.60;61.10
64817;DHT22;69411;45.656;11.740;2024-01-25T10:44:27;12.60;60.50
64817;DHT22;69411;45.656;11.740;2024-01-25T10:46:53;12.70;60.80
64817;DHT22;69411;45.656;11.740;2024-01-25T10:49:23;12.70;61.20
64817;DHT22;69411;45.656;11.740;2024-01-25T10:51:50;12.80;61.20
64817;DHT22;69411;45.656;11.740;2024-01-25T10:54:16;12.80;60.80
64817;DHT22;69411;45.656;11.740;2024-01-25T10:56:43;12.90;60.60
64817;DHT22;69411;45.656;11.740;2024-01-25T10:59:10;12.90;60.70
64817;DHT22;69411;45.656;11.740;2024-01-25T11:01:36;12.90;60.80
64817;DHT22;69411;45.656;11.740;2024-01-25T11:04:11;13.00;60.20
64817;DHT22;69411;45.656;11.740;2024-01-25T11:06:37;13.10;60.50
64817;DHT22;69411;45.656;11.740;2024-01-25T11:09:04;13.10;60.20
64817;DHT22;69411;45.656;11.740;2024-01-25T11:11:32;13.20;59.70
64817;DHT22;69411;45.656;11.740;2024-01-25T11:13:59;13.20;58.90
64817;DHT22;69411;45.656;11.740;2024-01-25T11:16:32;13.20;59.20
64817;DHT22;69411;45.656;11.740;2024-01-25T11:19:00;13.30;58.70
64817;DHT22;69411;45.656;11.740;2024-01-25T11:21:42;13.40;57.50
64817;DHT22;69411;45.656;11.740;2024-01-25T11:24:16;13.40;56.90
64817;DHT22;69411;45.656;11.740;2024-01-25T11:26:42;13.40;54.20
64817;DHT22;69411;45.656;11.740;2024-01-25T11:29:10;13.40;54.20
64817;DHT22;69411;45.656;11.740;2024-01-25T11:31:40;13.50;55.00
64817;DHT22;69411;45.656;11.740;2024-01-25T11:34:06;13.50;56.00
64817;DHT22;69411;45.656;11.740;2024-01-25T11:36:32;13.60;55.80
64817;DHT22;69411;45.656;11.740;2024-01-25T11:38:58;13.70;55.60
64817;DHT22;69411;45.656;11.740;2024-01-25T11:41:24;13.70;54.20
64817;DHT22;69411;45.656;11.740;2024-01-25T11:43:50;13.80;55.00
64817;DHT22;69411;45.656;11.740;2024-01-25T11:46:17;13.90;55.90
64817;DHT22;69411;45.656;11.740;2024-01-25T11:48:43;14.00;55.70
64817;DHT22;69411;45.656;11.740;2024-01-25T11:51:09;14.00;54.40
64817;DHT22;69411;45.656;11.740;2024-01-25T11:53:37;14.10;53.70
64817;DHT22;69411;45.656;11.740;2024-01-25T11:56:05;14.10;53.30
64817;DHT22;69411;45.656;11.740;2024-01-25T11:58:33;14.10;53.20
64817;DHT22;69411;45.656;11.740;2024-01-25T12:00:59;14.10;54.20
64817;DHT22;69411;45.656;11.740;2024-01-25T12:03:25;14.20;54.10
64817;DHT22;69411;45.656;11.740;2024-01-25T12:05:52;14.30;54.10
64817;DHT22;69411;45.656;11.740;2024-01-25T12:08:18;14.30;54.50
64817;DHT22;69411;45.656;11.740;2024-01-25T12:10:44;14.40;54.60
64817;DHT22;69411;45.656;11.740;2024-01-25T12:13:10;14.40;54.60
64817;DHT22;69411;45.656;11.740;2024-01-25T12:15:36;14.40;54.70
64817;DHT22;69411;45.656;11.740;2024-01-25T12:18:02;14.40;53.90
64817;DHT22;69411;45.656;11.740;2024-01-25T12:20:28;14.40;53.40
64817;DHT22;69411;45.656;11.740;2024-01-25T12:22:54;14.40;54.30
64817;DHT22;69411;45.656;11.740;2024-01-25T12:25:23;14.50;54.50
64817;DHT22;69411;45.656;11.740;2024-01-25T12:27:49;14.50;54.90
64817;DHT22;69411;45.656;11.740;2024-01-25T12:30:16;14.60;54.90
64817;DHT22;69411;45.656;11.740;2024-01-25T12:32:42;14.70;55.40
64817;DHT22;69411;45.656;11.740;2024-01-25T12:35:08;14.70;54.60
64817;DHT22;69411;45.656;11.740;2024-01-25T12:37:34;14.70;54.60
64817;DHT22;69411;45.656;11.740;2024-01-25T12:40:01;14.70;53.70
64817;DHT22;69411;45.656;11.740;2024-01-25T12:42:28;14.80;54.50
64817;DHT22;69411;45.656;11.740;2024-01-25T12:44:54;14.80;53.90
64817;DHT22;69411;45.656;11.740;2024-01-25T12:47:22;14.90;54.30
64817;DHT22;69411;45.656;11.740;2024-01-25T12:49:48;14.90;53.20
64817;DHT22;69411;45.656;11.740;2024-01-25T12:52:15;14.90;54.60
64817;DHT22;69411;45.656;11.740;2024-01-25T12:54:41;14.90;55.00
64817;DHT22;69411;45.656;11.740;2024-01-25T12:57:07;14.90;53.20
64817;DHT22;69411;45.656;11.740;2024-01-25T12:59:35;14.90;54.00
64817;DHT22;69411;45.656;11.740;2024-01-25T13:02:01;15.00;54.20
64817;DHT22;69411;45.656;11.740;2024-01-25T13:04:27;15.00;53.50
64817;DHT22;69411;45.656;11.740;2024-01-25T13:06:55;15.00;54.50
64817;DHT22;69411;45.656;11.740;2024-01-25T13:09:24;14.90;54.60
64817;DHT22;69411;45.656;11.740;2024-01-25T13:11:50;15.00;54.60
64817;DHT22;69411;45.656;11.740;2024-01-25T13:14:19;15.00;54.80
64817;DHT22;69411;45.656;11.740;2024-01-25T13:16:45;15.00;55.20
64817;DHT22;69411;45.656;11.740;2024-01-25T13:19:12;15.10;54.50
64817;DHT22;69411;45.656;11.740;2024-01-25T13:21:37;15.10;54.70
64817;DHT22;69411;45.656;11.740;2024-01-25T13:24:05;15.10;55.00
64817;DHT22;69411;45.656;11.740;2024-01-25T13:26:31;15.10;55.10
64817;DHT22;69411;45.656;11.740;2024-01-25T13:28:57;15.20;53.80
64817;DHT22;69411;45.656;11.740;2024-01-25T13:31:23;15.10;54.10
64817;DHT22;69411;45.656;11.740;2024-01-25T13:33:49;15.20;54.60
64817;DHT22;69411;45.656;11.740;2024-01-25T13:36:15;15.20;54.10
64817;DHT22;69411;45.656;11.740;2024-01-25T13:38:41;15.20;54.40
64817;DHT22;69411;45.656;11.740;2024-01-25T13:41:07;15.20;54.30
64817;DHT22;69411;45.656;11.740;2024-01-25T13:43:33;15.20;54.50
64817;DHT22;69411;45.656;11.740;2024-01-25T13:45:59;15.20;54.60
64817;DHT22;69411;45.656;11.740;2024-01-25T13:48:26;15.20;54.70
64817;DHT22;69411;45.656;11.740;2024-01-25T13:50:52;15.20;54.70
64817;DHT22;69411;45.656;11.740;2024-01-25T13:53:18;15.20;54.50
64817;DHT22;69411;45.656;11.740;2024-01-25T13:55:44;15.20;54.50
64817;DHT22;69411;45.656;11.740;2024-01-25T13:58:10;15.20;54.60
64817;DHT22;69411;45.656;11.740;2024-01-25T14:00:36;15.20;54.60
64817;DHT22;69411;45.656;11.740;2024-01-25T14:03:02;15.20;54.60
64817;DHT22;69411;45.656;11.740;2024-01-25T14:05:28;15.20;54.60
64817;DHT22;69411;45.656;11.740;2024-01-25T14:07:54;15.20;54.70
64817;DHT22;69411;45.656;11.740;2024-01-25T14:10:21;15.20;55.00
64817;DHT22;69411;45.656;11.740;2024-01-25T14:12:47;15.20;54.90
64817;DHT22;69411;45.656;11.740;2024-01-25T14:15:13;15.20;55.10
64817;DHT22;69411;45.656;11.740;2024-01-25T14:17:39;15.20;55.20
64817;DHT22;69411;45.656;11.740;2024-01-25T14:20:05;15.20;55.30
64817;DHT22;69411;45.656;11.740;2024-01-25T14:22:31;15.20;55.20
64817;DHT22;69411;45.656;11.740;2024-01-25T14:24:58;15.20;55.20
64817;DHT22;69411;45.656;11.740;2024-01-25T14:27:24;15.20;55.30
64817;DHT22;69411;45.656;11.740;2024-01-25T14:29:49;15.20;55.40
64817;DHT22;69411;45.656;11.740;2024-01-25T14:32:15;15.10;55.40
64817;DHT22;69411;45.656;11.740;2024-01-25T14:34:43;15.10;55.40
64817;DHT22;69411;45.656;11.740;2024-01-25T14:37:09;15.10;55.50
64817;DHT22;69411;45.656;11.740;2024-01-25T14:39:37;15.10;55.60
64817;DHT22;69411;45.656;11.740;2024-01-25T14:42:03;15.10;55.60
64817;DHT22;69411;45.656;11.740;2024-01-25T14:44:29;15.10;55.50
64817;DHT22;69411;45.656;11.740;2024-01-25T14:46:55;15.10;55.60
64817;DHT22;69411;45.656;11.740;2024-01-25T14:49:25;15.10;55.60
64817;DHT22;69411;45.656;11.740;2024-01-25T14:51:51;15.10;55.60
64817;DHT22;69411;45.656;11.740;2024-01-25T14:54:17;15.00;55.60
64817;DHT22;69411;45.656;11.740;2024-01-25T14:56:48;15.00;55.70
64817;DHT22;69411;45.656;11.740;2024-01-25T14:59:18;15.00;55.80
64817;DHT22;69411;45.656;11.740;2024-01-25T15:01:47;15.00;55.70
64817;DHT22;69411;45.656;11.740;2024-01-25T15:04:13;15.00;55.80
64817;DHT22;69411;45.656;11.740;2024-01-25T15:06:42;15.00;55.70
64817;DHT22;69411;45.656;11.740;2024-01-25T15:09:09;14.90;55.60
64817;DHT22;69411;45.656;11.740;2024-01-25T15:11:35;14.90;55.60
64817;DHT22;69411;45.656;11.740;2024-01-25T15:14:01;14.90;55.80
64817;DHT22;69411;45.656;11.740;2024-01-25T15:16:27;14.90;55.60
64817;DHT22;69411;45.656;11.740;2024-01-25T15:18:56;14.90;55.60